createdAt,value
2023-05-04T00:00:53.268Z,1023.17
2023-05-04T00:01:53.223Z,1023.19
2023-05-04T00:02:53.301Z,1023.19
2023-05-04T00:03:53.353Z,1023.19
2023-05-04T00:04:53.266Z,1023.18
2023-05-04T00:05:53.222Z,1023.18
2023-05-04T00:06:53.189Z,1023.17
2023-05-04T00:07:53.182Z,1023.17
2023-05-04T00:08:53.166Z,1023.17
2023-05-04T00:09:53.147Z,1023.16
2023-05-04T00:10:53.142Z,1023.15
2023-05-04T00:11:53.481Z,1023.13
2023-05-04T00:12:53.107Z,1023.13
2023-05-04T00:13:53.132Z,1023.11
2023-05-04T00:14:53.097Z,1023.11
2023-05-04T00:15:53.127Z,1023.11
2023-05-04T00:16:53.102Z,1023.11
2023-05-04T00:17:53.130Z,1023.10
2023-05-04T00:18:53.075Z,1023.11
2023-05-04T00:19:53.056Z,1023.10
2023-05-04T00:20:53.050Z,1023.11
2023-05-04T00:21:53.060Z,1023.11
2023-05-04T00:22:53.052Z,1023.09
2023-05-04T00:23:53.017Z,1023.08
2023-05-04T00:24:54.297Z,1023.07
2023-05-04T00:25:54.510Z,1023.05
2023-05-04T00:26:52.988Z,1023.04
2023-05-04T00:27:52.967Z,1023.04
2023-05-04T00:28:52.946Z,1023.03
2023-05-04T00:29:52.940Z,1023.03
2023-05-04T00:30:52.925Z,1023.03
2023-05-04T00:31:52.997Z,1023.02
2023-05-04T00:32:52.967Z,1023.02
2023-05-04T00:33:52.942Z,1023.02
2023-05-04T00:34:52.887Z,1023.02
2023-05-04T00:35:52.896Z,1023.02
2023-05-04T00:36:52.892Z,1023.01
2023-05-04T00:37:52.863Z,1023.00
2023-05-04T00:38:52.898Z,1023.00
2023-05-04T00:39:52.857Z,1023.00
2023-05-04T00:40:52.828Z,1022.99
2023-05-04T00:41:52.829Z,1023.00
2023-05-04T00:42:52.819Z,1023.00
2023-05-04T00:43:52.834Z,1023.01
2023-05-04T00:44:52.803Z,1023.03
2023-05-04T00:45:52.801Z,1023.03
2023-05-04T00:46:52.901Z,1023.03
2023-05-04T00:47:52.792Z,1023.02
2023-05-04T00:48:52.743Z,1023.01
2023-05-04T00:49:52.764Z,1023.00
2023-05-04T00:50:52.741Z,1022.99
2023-05-04T00:51:52.721Z,1022.97
2023-05-04T00:52:52.702Z,1022.95
2023-05-04T00:53:54.566Z,1022.95
2023-05-04T00:54:52.718Z,1022.95
2023-05-04T00:55:52.685Z,1022.96
2023-05-04T00:56:53.792Z,1022.95
2023-05-04T00:57:52.690Z,1022.94
2023-05-04T00:58:52.651Z,1022.93
2023-05-04T00:59:52.748Z,1022.92
2023-05-04T01:00:53.360Z,1022.91
2023-05-04T01:01:52.629Z,1022.91
2023-05-04T01:02:52.768Z,1022.92
2023-05-04T01:03:52.678Z,1022.93
2023-05-04T01:04:52.616Z,1022.93
2023-05-04T01:05:52.592Z,1022.92
2023-05-04T01:06:52.566Z,1022.91
2023-05-04T01:07:52.577Z,1022.89
2023-05-04T01:08:52.544Z,1022.87
2023-05-04T01:09:52.580Z,1022.86
2023-05-04T01:10:52.523Z,1022.85
2023-05-04T01:11:53.321Z,1022.84
2023-05-04T01:12:52.525Z,1022.84
2023-05-04T01:13:52.497Z,1022.83
2023-05-04T01:14:52.487Z,1022.83
2023-05-04T01:15:52.483Z,1022.83
2023-05-04T01:16:52.509Z,1022.83
2023-05-04T01:17:52.513Z,1022.83
2023-05-04T01:18:52.466Z,1022.83
2023-05-04T01:19:52.452Z,1022.84
2023-05-04T01:20:52.768Z,1022.84
2023-05-04T01:21:52.427Z,1022.85
2023-05-04T01:22:52.412Z,1022.85
2023-05-04T01:23:52.414Z,1022.85
2023-05-04T01:24:54.019Z,1022.84
2023-05-04T01:25:53.245Z,1022.84
2023-05-04T01:26:52.371Z,1022.85
2023-05-04T01:27:52.395Z,1022.84
2023-05-04T01:28:52.348Z,1022.84
2023-05-04T01:29:52.369Z,1022.84
2023-05-04T01:30:52.373Z,1022.83
2023-05-04T01:31:54.818Z,1022.82
2023-05-04T01:32:52.346Z,1022.82
2023-05-04T01:33:52.311Z,1022.82
2023-05-04T01:34:52.284Z,1022.82
2023-05-04T01:35:52.317Z,1022.83
2023-05-04T01:36:52.280Z,1022.83
2023-05-04T01:37:52.269Z,1022.83
2023-05-04T01:38:52.261Z,1022.82
2023-05-04T01:39:52.246Z,1022.81
2023-05-04T01:40:52.216Z,1022.80
2023-05-04T01:41:52.258Z,1022.78
2023-05-04T01:42:52.209Z,1022.76
2023-05-04T01:43:52.200Z,1022.76
2023-05-04T01:44:52.186Z,1022.75
2023-05-04T01:45:52.216Z,1022.75
2023-05-04T01:46:52.158Z,1022.74
2023-05-04T01:47:52.217Z,1022.73
2023-05-04T01:48:52.140Z,1022.73
2023-05-04T01:49:52.255Z,1022.73
2023-05-04T01:50:52.167Z,1022.71
2023-05-04T01:51:52.133Z,1022.71
2023-05-04T01:52:52.110Z,1022.71
2023-05-04T01:53:52.102Z,1022.72
2023-05-04T01:54:52.129Z,1022.72
2023-05-04T01:55:52.074Z,1022.72
2023-05-04T01:56:52.078Z,1022.72
2023-05-04T01:57:52.063Z,1022.72
2023-05-04T01:58:52.042Z,1022.71
2023-05-04T01:59:52.029Z,1022.72
2023-05-04T02:00:52.044Z,1022.73
2023-05-04T02:01:52.084Z,1022.73
2023-05-04T02:02:52.078Z,1022.73
2023-05-04T02:03:52.229Z,1022.72
2023-05-04T02:04:51.975Z,1022.72
2023-05-04T02:05:51.972Z,1022.70
2023-05-04T02:06:51.974Z,1022.70
2023-05-04T02:07:51.967Z,1022.69
2023-05-04T02:08:51.982Z,1022.68
2023-05-04T02:09:51.961Z,1022.68
2023-05-04T02:10:51.911Z,1022.68
2023-05-04T02:11:51.939Z,1022.68
2023-05-04T02:12:51.924Z,1022.67
2023-05-04T02:13:51.901Z,1022.67
2023-05-04T02:14:51.886Z,1022.66
2023-05-04T02:15:51.909Z,1022.65
2023-05-04T02:16:51.896Z,1022.65
2023-05-04T02:17:51.912Z,1022.64
2023-05-04T02:18:51.839Z,1022.64
2023-05-04T02:19:51.864Z,1022.63
2023-05-04T02:20:51.829Z,1022.63
2023-05-04T02:21:51.838Z,1022.62
2023-05-04T02:22:51.826Z,1022.62
2023-05-04T02:23:51.835Z,1022.62
2023-05-04T02:24:51.780Z,1022.63
2023-05-04T02:25:51.781Z,1022.64
2023-05-04T02:26:51.757Z,1022.65
2023-05-04T02:27:52.733Z,1022.66
2023-05-04T02:28:51.728Z,1022.66
2023-05-04T02:29:51.747Z,1022.67
2023-05-04T02:30:51.744Z,1022.67
2023-05-04T02:31:51.762Z,1022.67
2023-05-04T02:32:51.719Z,1022.68
2023-05-04T02:33:51.680Z,1022.69
2023-05-04T02:34:51.689Z,1022.70
2023-05-04T02:35:51.666Z,1022.71
2023-05-04T02:36:51.667Z,1022.70
2023-05-04T02:37:51.664Z,1022.69
2023-05-04T02:38:51.642Z,1022.69
2023-05-04T02:39:51.624Z,1022.68
2023-05-04T02:40:51.625Z,1022.67
2023-05-04T02:41:51.599Z,1022.67
2023-05-04T02:42:53.741Z,1022.67
2023-05-04T02:43:53.208Z,1022.67
2023-05-04T02:44:51.620Z,1022.67
2023-05-04T02:45:51.597Z,1022.66
2023-05-04T02:46:51.558Z,1022.67
2023-05-04T02:47:51.609Z,1022.66
2023-05-04T02:48:51.574Z,1022.65
2023-05-04T02:49:51.519Z,1022.64
2023-05-04T02:50:51.472Z,1022.64
2023-05-04T02:51:51.518Z,1022.65
2023-05-04T02:52:51.500Z,1022.66
2023-05-04T02:53:53.261Z,1022.66
2023-05-04T02:54:53.147Z,1022.66
2023-05-04T02:55:51.663Z,1022.64
2023-05-04T02:56:51.427Z,1022.64
2023-05-04T02:57:51.473Z,1022.64
2023-05-04T02:58:51.490Z,1022.64
2023-05-04T02:59:51.406Z,1022.64
2023-05-04T03:00:51.401Z,1022.63
2023-05-04T03:01:51.434Z,1022.64
2023-05-04T03:02:51.393Z,1022.63
2023-05-04T03:03:51.441Z,1022.63
2023-05-04T03:04:51.335Z,1022.62
2023-05-04T03:05:51.319Z,1022.60
2023-05-04T03:06:51.331Z,1022.58
2023-05-04T03:07:51.296Z,1022.56
2023-05-04T03:08:51.323Z,1022.54
2023-05-04T03:09:51.276Z,1022.53
2023-05-04T03:10:51.276Z,1022.51
2023-05-04T03:11:51.250Z,1022.52
2023-05-04T03:12:51.303Z,1022.52
2023-05-04T03:13:51.270Z,1022.52
2023-05-04T03:14:51.231Z,1022.51
2023-05-04T03:15:51.217Z,1022.50
2023-05-04T03:16:53.335Z,1022.49
2023-05-04T03:17:51.245Z,1022.48
2023-05-04T03:19:12.213Z,1022.47
2023-05-04T03:19:51.170Z,1022.47
2023-05-04T03:20:51.174Z,1022.47
2023-05-04T03:21:51.162Z,1022.48
2023-05-04T03:22:51.207Z,1022.49
2023-05-04T03:23:51.172Z,1022.49
2023-05-04T03:24:51.135Z,1022.50
2023-05-04T03:25:51.110Z,1022.51
2023-05-04T03:26:51.110Z,1022.52
2023-05-04T03:27:51.118Z,1022.52
2023-05-04T03:28:51.356Z,1022.52
2023-05-04T03:29:51.070Z,1022.51
2023-05-04T03:30:51.089Z,1022.51
2023-05-04T03:31:51.089Z,1022.51
2023-05-04T03:32:51.196Z,1022.52
2023-05-04T03:33:51.041Z,1022.52
2023-05-04T03:34:51.023Z,1022.52
2023-05-04T03:35:51.040Z,1022.51
2023-05-04T03:36:51.012Z,1022.51
2023-05-04T03:37:51.052Z,1022.50
2023-05-04T03:38:50.985Z,1022.49
2023-05-04T03:39:50.990Z,1022.48
2023-05-04T03:40:50.974Z,1022.48
2023-05-04T03:41:50.980Z,1022.47
2023-05-04T03:42:50.973Z,1022.45
2023-05-04T03:43:50.932Z,1022.44
2023-05-04T03:44:50.927Z,1022.43
2023-05-04T03:45:50.984Z,1022.42
2023-05-04T03:46:50.908Z,1022.42
2023-05-04T03:47:50.973Z,1022.41
2023-05-04T03:48:50.886Z,1022.40
2023-05-04T03:49:50.875Z,1022.39
2023-05-04T03:50:52.495Z,1022.40
2023-05-04T03:51:51.020Z,1022.41
2023-05-04T03:52:51.516Z,1022.42
2023-05-04T03:53:50.846Z,1022.43
2023-05-04T03:54:50.830Z,1022.43
2023-05-04T03:55:52.006Z,1022.43
2023-05-04T03:56:50.796Z,1022.42
2023-05-04T03:57:51.894Z,1022.40
2023-05-04T03:58:50.791Z,1022.39
2023-05-04T03:59:51.373Z,1022.38
2023-05-04T04:00:50.757Z,1022.38
2023-05-04T04:01:50.782Z,1022.38
2023-05-04T04:02:52.275Z,1022.38
2023-05-04T04:03:50.815Z,1022.38
2023-05-04T04:04:53.234Z,1022.39
2023-05-04T04:05:51.709Z,1022.39
2023-05-04T04:06:50.698Z,1022.38
2023-05-04T04:07:50.706Z,1022.39
2023-05-04T04:08:50.703Z,1022.37
2023-05-04T04:09:50.687Z,1022.36
2023-05-04T04:10:50.655Z,1022.36
2023-05-04T04:11:50.708Z,1022.35
2023-05-04T04:12:50.733Z,1022.34
2023-05-04T04:13:50.631Z,1022.33
2023-05-04T04:14:50.621Z,1022.33
2023-05-04T04:15:50.699Z,1022.33
2023-05-04T04:16:50.622Z,1022.33
2023-05-04T04:17:51.300Z,1022.34
2023-05-04T04:18:50.595Z,1022.35
2023-05-04T04:19:50.571Z,1022.35
2023-05-04T04:20:50.587Z,1022.35
2023-05-04T04:21:50.597Z,1022.35
2023-05-04T04:22:52.357Z,1022.34
2023-05-04T04:23:51.067Z,1022.33
2023-05-04T04:24:50.528Z,1022.33
2023-05-04T04:25:50.534Z,1022.33
2023-05-04T04:26:50.523Z,1022.33
2023-05-04T04:27:50.496Z,1022.34
2023-05-04T04:28:50.565Z,1022.35
2023-05-04T04:29:50.494Z,1022.36
2023-05-04T04:30:51.840Z,1022.37
2023-05-04T04:31:50.577Z,1022.38
2023-05-04T04:32:50.468Z,1022.39
2023-05-04T04:33:51.295Z,1022.39
2023-05-04T04:34:50.417Z,1022.39
2023-05-04T04:35:51.819Z,1022.38
2023-05-04T04:36:50.401Z,1022.38
2023-05-04T04:37:50.403Z,1022.37
2023-05-04T04:38:50.373Z,1022.38
2023-05-04T04:39:50.400Z,1022.39
2023-05-04T04:40:50.375Z,1022.39
2023-05-04T04:41:50.355Z,1022.40
2023-05-04T04:42:50.343Z,1022.41
2023-05-04T04:43:50.334Z,1022.42
2023-05-04T04:44:50.335Z,1022.42
2023-05-04T04:45:50.307Z,1022.43
2023-05-04T04:46:50.333Z,1022.42
2023-05-04T04:47:50.331Z,1022.41
2023-05-04T04:48:51.163Z,1022.41
2023-05-04T04:49:50.294Z,1022.41
2023-05-04T04:50:50.258Z,1022.41
2023-05-04T04:51:50.258Z,1022.42
2023-05-04T04:52:50.260Z,1022.42
2023-05-04T04:53:50.586Z,1022.42
2023-05-04T04:54:50.217Z,1022.42
2023-05-04T04:55:50.217Z,1022.43
2023-05-04T04:56:51.690Z,1022.42
2023-05-04T04:57:50.538Z,1022.41
2023-05-04T04:58:50.174Z,1022.41
2023-05-04T04:59:50.179Z,1022.40
2023-05-04T05:00:52.336Z,1022.40
2023-05-04T05:01:50.155Z,1022.38
2023-05-04T05:02:50.137Z,1022.37
2023-05-04T05:03:51.506Z,1022.36
2023-05-04T05:04:50.129Z,1022.34
2023-05-04T05:05:50.138Z,1022.33
2023-05-04T05:06:50.114Z,1022.32
2023-05-04T05:07:51.105Z,1022.32
2023-05-04T05:08:50.910Z,1022.32
2023-05-04T05:09:56.685Z,1022.32
2023-05-04T05:10:51.841Z,1022.31
2023-05-04T05:11:50.059Z,1022.31
2023-05-04T05:12:50.086Z,1022.31
2023-05-04T05:13:53.472Z,1022.31
2023-05-04T05:14:51.543Z,1022.31
2023-05-04T05:15:50.069Z,1022.31
2023-05-04T05:16:56.927Z,1022.30
2023-05-04T05:17:50.056Z,1022.30
2023-05-04T05:18:49.980Z,1022.29
2023-05-04T05:19:51.139Z,1022.29
2023-05-04T05:20:50.570Z,1022.27
2023-05-04T05:21:50.229Z,1022.26
2023-05-04T05:22:49.946Z,1022.26
2023-05-04T05:23:49.937Z,1022.26
2023-05-04T05:24:49.910Z,1022.27
2023-05-04T05:25:49.920Z,1022.27
2023-05-04T05:26:49.944Z,1022.27
2023-05-04T05:27:49.928Z,1022.27
2023-05-04T05:28:49.880Z,1022.26
2023-05-04T05:29:49.878Z,1022.26
2023-05-04T05:30:49.868Z,1022.28
2023-05-04T05:31:49.867Z,1022.27
2023-05-04T05:32:49.889Z,1022.27
2023-05-04T05:33:49.883Z,1022.27
2023-05-04T05:34:49.816Z,1022.26
2023-05-04T05:35:49.835Z,1022.26
2023-05-04T05:36:49.801Z,1022.27
2023-05-04T05:37:50.062Z,1022.26
2023-05-04T05:38:51.399Z,1022.28
2023-05-04T05:39:49.783Z,1022.28
2023-05-04T05:40:50.472Z,1022.29
2023-05-04T05:41:49.743Z,1022.28
2023-05-04T05:42:49.997Z,1022.28
2023-05-04T05:43:50.392Z,1022.27
2023-05-04T05:44:49.752Z,1022.27
2023-05-04T05:45:50.941Z,1022.24
2023-05-04T05:46:49.723Z,1022.23
2023-05-04T05:47:49.729Z,1022.22
2023-05-04T05:48:49.681Z,1022.19
2023-05-04T05:49:49.724Z,1022.16
2023-05-04T05:50:49.652Z,1022.16
2023-05-04T05:51:51.353Z,1022.17
2023-05-04T05:52:49.661Z,1022.18
2023-05-04T05:53:50.970Z,1022.19
2023-05-04T05:54:49.653Z,1022.20
2023-05-04T05:55:49.654Z,1022.22
2023-05-04T05:56:52.312Z,1022.23
2023-05-04T05:57:49.681Z,1022.24
2023-05-04T05:58:49.599Z,1022.26
2023-05-04T05:59:49.603Z,1022.26
2023-05-04T06:00:49.584Z,1022.26
2023-05-04T06:01:50.770Z,1022.24
2023-05-04T06:02:49.601Z,1022.23
2023-05-04T06:03:49.731Z,1022.22
2023-05-04T06:04:49.629Z,1022.22
2023-05-04T06:05:53.323Z,1022.21
2023-05-04T06:06:51.111Z,1022.20
2023-05-04T06:07:51.063Z,1022.20
2023-05-04T06:08:49.481Z,1022.19
2023-05-04T06:09:49.476Z,1022.19
2023-05-04T06:10:49.455Z,1022.18
2023-05-04T06:11:49.790Z,1022.18
2023-05-04T06:12:49.461Z,1022.16
2023-05-04T06:13:49.449Z,1022.16
2023-05-04T06:14:49.431Z,1022.16
2023-05-04T06:15:49.434Z,1022.16
2023-05-04T06:16:50.349Z,1022.16
2023-05-04T06:17:50.618Z,1022.17
2023-05-04T06:18:49.384Z,1022.19
2023-05-04T06:19:50.832Z,1022.19
2023-05-04T06:20:50.988Z,1022.19
2023-05-04T06:21:50.096Z,1022.21
2023-05-04T06:22:49.324Z,1022.21
2023-05-04T06:23:49.920Z,1022.21
2023-05-04T06:24:55.680Z,1022.23
2023-05-04T06:25:49.337Z,1022.25
2023-05-04T06:26:49.915Z,1022.25
2023-05-04T06:27:49.925Z,1022.26
2023-05-04T06:28:50.904Z,1022.25
2023-05-04T06:29:50.807Z,1022.24
2023-05-04T06:30:49.265Z,1022.23
2023-05-04T06:31:49.268Z,1022.22
2023-05-04T06:32:49.881Z,1022.20
2023-05-04T06:33:49.940Z,1022.19
2023-05-04T06:34:50.390Z,1022.18
2023-05-04T06:35:50.333Z,1022.19
2023-05-04T06:36:50.747Z,1022.19
2023-05-04T06:38:49.607Z,1022.19
2023-05-04T06:39:49.160Z,1022.19
2023-05-04T06:40:49.150Z,1022.19
2023-05-04T06:41:54.113Z,1022.19
2023-05-04T06:42:49.165Z,1022.18
2023-05-04T06:43:49.108Z,1022.17
2023-05-04T06:44:50.931Z,1022.16
2023-05-04T06:45:49.161Z,1022.14
2023-05-04T06:46:49.696Z,1022.13
2023-05-04T06:47:49.173Z,1022.11
2023-05-04T06:48:49.080Z,1022.11
2023-05-04T06:49:49.030Z,1022.11
2023-05-04T06:50:49.125Z,1022.10
2023-05-04T06:51:49.660Z,1022.08
2023-05-04T06:52:49.018Z,1022.07
2023-05-04T06:53:49.029Z,1022.06
2023-05-04T06:54:49.034Z,1022.06
2023-05-04T06:55:49.684Z,1022.06
2023-05-04T06:56:48.987Z,1022.04
2023-05-04T06:57:48.966Z,1022.04
2023-05-04T06:58:49.647Z,1022.05
2023-05-04T06:59:50.293Z,1022.03
2023-05-04T07:00:49.064Z,1022.03
2023-05-04T07:01:49.142Z,1022.03
2023-05-04T07:02:48.995Z,1022.01
2023-05-04T07:03:48.938Z,1022.00
2023-05-04T07:04:48.945Z,1022.00
2023-05-04T07:05:50.843Z,1021.98
2023-05-04T07:06:48.869Z,1021.99
2023-05-04T07:07:51.070Z,1021.97
2023-05-04T07:08:48.853Z,1021.98
2023-05-04T07:09:49.510Z,1021.99
2023-05-04T07:10:49.551Z,1021.98
2023-05-04T07:11:50.487Z,1021.97
2023-05-04T07:12:48.825Z,1021.96
2023-05-04T07:13:49.509Z,1021.94
2023-05-04T07:14:53.750Z,1021.91
2023-05-04T07:15:48.799Z,1021.89
2023-05-04T07:16:50.402Z,1021.87
2023-05-04T07:17:50.391Z,1021.87
2023-05-04T07:18:48.761Z,1021.86
2023-05-04T07:19:49.606Z,1021.85
2023-05-04T07:20:49.445Z,1021.85
2023-05-04T07:21:48.737Z,1021.83
2023-05-04T07:22:50.389Z,1021.82
2023-05-04T07:23:48.687Z,1021.82
2023-05-04T07:24:52.020Z,1021.81
2023-05-04T07:25:51.471Z,1021.79
2023-05-04T07:26:50.601Z,1021.77
2023-05-04T07:27:48.662Z,1021.75
2023-05-04T07:28:48.662Z,1021.73
2023-05-04T07:29:48.664Z,1021.71
2023-05-04T07:30:48.695Z,1021.70
2023-05-04T07:31:48.640Z,1021.71
2023-05-04T07:32:48.664Z,1021.70
2023-05-04T07:33:48.644Z,1021.69
2023-05-04T07:34:48.596Z,1021.68
2023-05-04T07:35:49.810Z,1021.67
2023-05-04T07:36:48.560Z,1021.66
2023-05-04T07:37:49.243Z,1021.66
2023-05-04T07:38:48.862Z,1021.66
2023-05-04T07:44:47.121Z,1021.60
2023-05-04T07:45:48.251Z,1021.59
2023-05-04T07:46:48.083Z,1021.59
2023-05-04T07:47:55.132Z,1021.61
2023-05-04T07:48:48.065Z,1021.60
2023-05-04T07:49:50.201Z,1021.59
2023-05-04T07:50:48.166Z,1021.58
2023-05-04T07:51:48.077Z,1021.57
2023-05-04T07:52:55.055Z,1021.59
2023-05-04T09:15:36.674Z,1021.31
2023-05-04T09:16:28.939Z,1021.32
2023-05-04T09:17:29.005Z,1021.29
2023-05-04T09:18:28.939Z,1021.28
2023-05-04T09:19:28.919Z,1021.26
2023-05-04T09:20:28.910Z,1021.24
2023-05-04T09:21:28.875Z,1021.20
2023-05-04T09:22:29.030Z,1021.25
2023-05-04T09:23:28.915Z,1021.22
2023-05-04T09:24:28.865Z,1021.22
2023-05-04T09:25:28.833Z,1021.18
2023-05-04T09:26:28.873Z,1021.21
2023-05-04T09:27:29.011Z,1021.19
2023-05-04T09:28:28.922Z,1021.21
2023-05-04T09:29:28.783Z,1021.20
2023-05-04T09:30:28.782Z,1021.17
2023-05-04T09:31:28.887Z,1021.17
2023-05-04T09:32:28.836Z,1021.16
2023-05-04T09:33:28.758Z,1021.16
2023-05-04T09:34:28.777Z,1021.18
2023-05-04T09:35:33.175Z,1021.16
2023-05-04T09:36:28.757Z,1021.14
2023-05-04T09:37:28.712Z,1021.13
2023-05-04T09:38:28.705Z,1021.13
2023-05-04T09:39:28.695Z,1021.12
2023-05-04T09:40:28.696Z,1021.12
2023-05-04T09:41:28.712Z,1021.09
2023-05-04T09:42:28.654Z,1021.09
2023-05-04T09:43:28.655Z,1021.07
2023-05-04T09:44:29.594Z,1021.02
2023-05-04T09:45:28.638Z,1021.02
2023-05-04T09:46:28.645Z,1021.03
2023-05-04T09:47:29.377Z,1021.00
2023-05-04T09:48:28.610Z,1020.99
2023-05-04T09:49:28.595Z,1020.98
2023-05-04T09:50:30.176Z,1020.97
2023-05-04T09:51:28.556Z,1020.98
2023-05-04T09:52:29.180Z,1020.98
2023-05-04T09:53:29.164Z,1020.95
2023-05-04T09:54:29.461Z,1020.94
2023-05-04T09:55:28.558Z,1020.95
2023-05-04T09:56:28.659Z,1020.95
2023-05-04T09:57:28.817Z,1020.95
2023-05-04T09:58:29.814Z,1020.93
2023-05-04T09:59:28.784Z,1020.94
2023-05-04T10:00:28.763Z,1020.93
2023-05-04T10:01:28.620Z,1020.92
2023-05-04T10:02:35.298Z,1020.93
2023-05-04T10:03:28.564Z,1020.93
2023-05-04T10:04:30.341Z,1020.93
2023-05-04T10:05:29.452Z,1020.93
2023-05-04T10:06:28.620Z,1020.92
2023-05-04T10:07:29.744Z,1020.93
2023-05-04T10:08:30.716Z,1020.93
2023-05-04T10:09:28.997Z,1020.91
2023-05-04T10:10:28.572Z,1020.89
2023-05-04T10:11:29.346Z,1020.91
2023-05-04T10:12:29.060Z,1020.89
2023-05-04T10:13:28.557Z,1020.86
2023-05-04T10:14:28.534Z,1020.86
2023-05-04T10:15:28.533Z,1020.82
2023-05-04T10:16:28.536Z,1020.83
2023-05-04T10:17:29.511Z,1020.81
2023-05-04T10:18:29.411Z,1020.78
2023-05-04T10:19:28.561Z,1020.76
2023-05-04T10:20:29.310Z,1020.75
2023-05-04T10:21:28.463Z,1020.72
2023-05-04T10:22:28.512Z,1020.73
2023-05-04T10:23:28.606Z,1020.72
2023-05-04T10:24:34.805Z,1020.72
2023-05-04T10:25:31.072Z,1020.72
2023-05-04T10:26:29.412Z,1020.68
2023-05-04T10:27:28.467Z,1020.68
2023-05-04T10:28:28.457Z,1020.66
2023-05-04T10:29:28.462Z,1020.64
2023-05-04T10:30:28.362Z,1020.61
2023-05-04T10:31:28.333Z,1020.64
2023-05-04T10:32:29.378Z,1020.57
2023-05-04T10:33:29.365Z,1020.56
2023-05-04T10:34:28.421Z,1020.56
2023-05-04T10:35:28.238Z,1020.54
2023-05-04T10:36:29.202Z,1020.53
2023-05-04T10:37:28.310Z,1020.50
2023-05-04T10:38:30.390Z,1020.52
2023-05-04T10:39:28.264Z,1020.44
2023-05-04T10:40:29.854Z,1020.39
2023-05-04T10:41:28.204Z,1020.40
2023-05-04T10:42:28.251Z,1020.42
2023-05-04T10:43:29.182Z,1020.40
2023-05-04T10:44:28.287Z,1020.41
2023-05-04T10:45:28.174Z,1020.39
2023-05-04T10:46:30.393Z,1020.38
2023-05-04T10:47:29.240Z,1020.36
2023-05-04T10:48:28.406Z,1020.35
2023-05-04T10:49:27.977Z,1020.36
2023-05-04T10:50:27.970Z,1020.34
2023-05-04T10:51:38.935Z,1020.35
2023-05-04T10:52:28.639Z,1020.36
2023-05-04T10:53:29.679Z,1020.37
2023-05-04T10:54:28.063Z,1020.30
2023-05-04T10:55:31.325Z,1020.27
2023-05-04T10:56:27.966Z,1020.24
2023-05-04T10:57:27.922Z,1020.21
2023-05-04T10:58:27.863Z,1020.19
2023-05-04T10:59:27.869Z,1020.19
2023-05-04T11:00:27.843Z,1020.17
2023-05-04T11:01:27.897Z,1020.15
2023-05-04T11:02:28.869Z,1020.17
2023-05-04T11:03:27.927Z,1020.19
2023-05-04T11:04:27.812Z,1020.21
2023-05-04T11:05:27.804Z,1020.17
2023-05-04T11:06:27.818Z,1020.18
2023-05-04T11:07:27.795Z,1020.15
2023-05-04T11:08:27.785Z,1020.15
2023-05-04T11:09:27.772Z,1020.16
2023-05-04T11:10:27.756Z,1020.10
2023-05-04T11:11:27.747Z,1020.12
2023-05-04T11:12:27.757Z,1020.13
2023-05-04T11:13:27.733Z,1020.12
2023-05-04T11:14:27.738Z,1020.12
2023-05-04T11:15:27.703Z,1020.10
2023-05-04T11:16:27.708Z,1020.05
2023-05-04T11:17:28.775Z,1020.08
2023-05-04T11:18:27.662Z,1020.03
2023-05-04T11:19:27.671Z,1020.05
2023-05-04T11:20:27.956Z,1020.08
2023-05-04T11:21:27.671Z,1020.07
2023-05-04T11:22:27.628Z,1020.06
2023-05-04T11:23:27.654Z,1020.02
2023-05-04T11:24:27.606Z,1020.03
2023-05-04T11:25:27.637Z,1020.02
2023-05-04T11:26:27.610Z,1020.02
2023-05-04T11:27:27.597Z,1020.00
2023-05-04T11:28:28.184Z,1020.01
2023-05-04T11:29:28.185Z,1020.02
2023-05-04T11:30:27.578Z,1020.04
2023-05-04T11:31:29.212Z,1020.04
2023-05-04T11:32:27.532Z,1019.98
2023-05-04T11:33:27.543Z,1019.98
2023-05-04T11:34:27.503Z,1019.96
2023-05-04T11:35:27.522Z,1019.96
2023-05-04T11:36:27.490Z,1019.94
2023-05-04T11:37:27.635Z,1019.93
2023-05-04T11:38:27.487Z,1019.92
2023-05-04T11:39:27.472Z,1019.89
2023-05-04T11:40:27.484Z,1019.90
2023-05-04T11:41:27.449Z,1019.91
2023-05-04T11:42:27.461Z,1019.88
2023-05-04T11:43:27.469Z,1019.87
2023-05-04T11:44:27.412Z,1019.88
2023-05-04T11:45:27.405Z,1019.87
2023-05-04T11:46:27.433Z,1019.93
2023-05-04T11:47:27.411Z,1019.88
2023-05-04T11:48:27.378Z,1019.86
2023-05-04T11:49:27.383Z,1019.84
2023-05-04T11:50:27.353Z,1019.83
2023-05-04T11:51:27.340Z,1019.82
2023-05-04T11:52:27.337Z,1019.81
2023-05-04T11:53:27.343Z,1019.81
2023-05-04T11:54:27.427Z,1019.79
2023-05-04T11:55:27.295Z,1019.78
2023-05-04T11:56:27.302Z,1019.76
2023-05-04T11:57:27.285Z,1019.73
2023-05-04T11:58:27.272Z,1019.72
2023-05-04T11:59:27.259Z,1019.70
2023-05-04T12:00:27.262Z,1019.72
2023-05-04T12:01:27.227Z,1019.66
2023-05-04T12:02:27.277Z,1019.70
2023-05-04T12:03:30.199Z,1019.71
2023-05-04T12:04:27.232Z,1019.70
2023-05-04T12:05:27.204Z,1019.70
2023-05-04T12:06:27.180Z,1019.69
2023-05-04T12:07:27.164Z,1019.69
2023-05-04T12:08:28.010Z,1019.72
2023-05-04T12:09:27.172Z,1019.68
2023-05-04T12:10:27.446Z,1019.67
2023-05-04T12:11:27.319Z,1019.67
2023-05-04T12:12:27.778Z,1019.66
2023-05-04T12:13:27.104Z,1019.65
2023-05-04T12:14:29.335Z,1019.65
2023-05-04T12:15:27.124Z,1019.64
2023-05-04T12:16:28.890Z,1019.63
2023-05-04T12:17:27.740Z,1019.65
2023-05-04T12:18:27.692Z,1019.61
2023-05-04T12:19:27.089Z,1019.61
2023-05-04T12:20:27.043Z,1019.62
2023-05-04T12:21:27.037Z,1019.61
2023-05-04T12:22:27.025Z,1019.60
2023-05-04T12:23:27.005Z,1019.63
2023-05-04T12:24:27.061Z,1019.61
2023-05-04T12:25:26.985Z,1019.60
2023-05-04T12:26:27.841Z,1019.60
2023-05-04T12:27:26.981Z,1019.61
2023-05-04T12:28:27.037Z,1019.60
2023-05-04T12:29:26.946Z,1019.58
2023-05-04T12:30:28.759Z,1019.60
2023-05-04T12:31:26.971Z,1019.58
2023-05-04T12:32:27.060Z,1019.59
2023-05-04T12:33:26.904Z,1019.60
2023-05-04T12:34:26.910Z,1019.58
2023-05-04T12:35:26.879Z,1019.57
2023-05-04T12:36:26.878Z,1019.56
2023-05-04T12:37:26.888Z,1019.53
2023-05-04T12:38:26.850Z,1019.52
2023-05-04T12:39:26.851Z,1019.50
2023-05-04T12:40:28.569Z,1019.48
2023-05-04T12:41:26.815Z,1019.48
2023-05-04T12:42:26.842Z,1019.46
2023-05-04T12:43:26.798Z,1019.44
2023-05-04T12:44:26.798Z,1019.38
2023-05-04T12:45:26.773Z,1019.43
2023-05-04T12:46:26.808Z,1019.38
2023-05-04T12:47:26.829Z,1019.39
2023-05-04T12:48:26.770Z,1019.41
2023-05-04T12:49:26.752Z,1019.38
2023-05-04T12:50:26.733Z,1019.42
2023-05-04T12:51:26.726Z,1019.38
2023-05-04T12:52:26.768Z,1019.38
2023-05-04T12:53:26.690Z,1019.30
2023-05-04T12:54:26.703Z,1019.31
2023-05-04T12:55:26.669Z,1019.32
2023-05-04T12:56:27.636Z,1019.29
2023-05-04T12:57:26.675Z,1019.30
2023-05-04T12:58:26.682Z,1019.28
2023-05-04T12:59:26.630Z,1019.26
2023-05-04T13:00:26.645Z,1019.26
2023-05-04T13:01:26.681Z,1019.28
2023-05-04T13:02:27.368Z,1019.26
2023-05-04T13:03:26.700Z,1019.26
2023-05-04T13:04:27.312Z,1019.27
2023-05-04T13:05:26.565Z,1019.28
2023-05-04T13:06:26.566Z,1019.26
2023-05-04T13:07:26.539Z,1019.26
2023-05-04T13:08:26.631Z,1019.24
2023-05-04T13:09:26.550Z,1019.21
2023-05-04T13:10:26.530Z,1019.20
2023-05-04T13:11:26.540Z,1019.15
2023-05-04T13:12:26.514Z,1019.15
2023-05-04T13:13:26.618Z,1019.15
2023-05-04T13:14:26.503Z,1019.14
2023-05-04T13:15:26.473Z,1019.15
2023-05-04T13:16:26.567Z,1019.12
2023-05-04T13:17:26.486Z,1019.06
2023-05-04T13:18:26.476Z,1019.07
2023-05-04T13:19:26.427Z,1019.04
2023-05-04T13:20:26.425Z,1019.04
2023-05-04T13:21:26.485Z,1018.99
2023-05-04T13:22:26.402Z,1018.95
2023-05-04T13:23:26.422Z,1018.94
2023-05-04T13:24:26.391Z,1018.91
2023-05-04T13:25:26.364Z,1018.92
2023-05-04T13:26:26.429Z,1018.93
2023-05-04T13:27:26.352Z,1018.90
2023-05-04T13:28:26.354Z,1018.92
2023-05-04T13:29:26.361Z,1018.90
2023-05-04T13:30:26.344Z,1018.94
2023-05-04T13:31:26.353Z,1018.90
2023-05-04T13:32:26.351Z,1018.90
2023-05-04T13:33:30.174Z,1018.89